sensor_id;sensor_type;location;lat;lon;timestamp;temperature;humidity
60868;DHT22;46702;48.370;10.794;2022-10-31T00:01:58;7.80;99.90
60868;DHT22;46702;48.370;10.794;2022-10-31T00:04:24;8.00;99.90
60868;DHT22;46702;48.370;10.794;2022-10-31T00:06:49;8.10;99.90
60868;DHT22;46702;48.370;10.794;2022-10-31T00:09:15;8.00;99.90
60868;DHT22;46702;48.370;10.794;2022-10-31T00:11:41;7.90;99.90
60868;DHT22;46702;48.370;10.794;2022-10-31T00:14:06;7.80;99.90
60868;DHT22;46702;48.370;10.794;2022-10-31T00:16:32;7.90;99.90
60868;DHT22;46702;48.370;10.794;2022-10-31T00:19:00;8.00;99.90
60868;DHT22;46702;48.370;10.794;2022-10-31T00:21:26;8.10;99.90
60868;DHT22;46702;48.370;10.794;2022-10-31T00:23:52;8.20;99.90
60868;DHT22;46702;48.370;10.794;2022-10-31T00:26:18;8.30;99.90
60868;DHT22;46702;48.370;10.794;2022-10-31T00:28:44;8.40;99.90
60868;DHT22;46702;48.370;10.794;2022-10-31T00:31:11;8.50;99.90
60868;DHT22;46702;48.370;10.794;2022-10-31T00:33:38;8.20;99.90
60868;DHT22;46702;48.370;10.794;2022-10-31T00:36:05;8.10;99.90
60868;DHT22;46702;48.370;10.794;2022-10-31T00:38:31;8.20;99.90
60868;DHT22;46702;48.370;10.794;2022-10-31T00:40:57;8.00;99.90
60868;DHT22;46702;48.370;10.794;2022-10-31T00:43:23;7.90;99.90
60868;DHT22;46702;48.370;10.794;2022-10-31T00:45:48;8.00;99.90
60868;DHT22;46702;48.370;10.794;2022-10-31T00:48:14;8.00;99.90
60868;DHT22;46702;48.370;10.794;2022-10-31T00:50:41;7.90;99.90
60868;DHT22;46702;48.370;10.794;2022-10-31T00:53:07;7.70;99.90
60868;DHT22;46702;48.370;10.794;2022-10-31T00:55:33;7.70;99.90
60868;DHT22;46702;48.370;10.794;2022-10-31T00:57:58;7.80;99.90
60868;DHT22;46702;48.370;10.794;2022-10-31T01:00:24;7.80;99.90
60868;DHT22;46702;48.370;10.794;2022-10-31T01:02:50;7.90;99.90
60868;DHT22;46702;48.370;10.794;2022-10-31T01:05:15;8.00;99.90
60868;DHT22;46702;48.370;10.794;2022-10-31T01:07:41;8.00;99.90
60868;DHT22;46702;48.370;10.794;2022-10-31T01:10:08;8.00;99.90
60868;DHT22;46702;48.370;10.794;2022-10-31T01:12:42;8.00;99.90
60868;DHT22;46702;48.370;10.794;2022-10-31T01:15:09;7.80;99.90
60868;DHT22;46702;48.370;10.794;2022-10-31T01:17:35;7.70;99.90
60868;DHT22;46702;48.370;10.794;2022-10-31T01:20:01;7.60;99.90
60868;DHT22;46702;48.370;10.794;2022-10-31T01:22:27;7.60;99.90
60868;DHT22;46702;48.370;10.794;2022-10-31T01:24:52;7.50;99.90
60868;DHT22;46702;48.370;10.794;2022-10-31T01:27:18;7.50;99.90
60868;DHT22;46702;48.370;10.794;2022-10-31T01:29:43;7.50;99.90
60868;DHT22;46702;48.370;10.794;2022-10-31T01:32:09;7.60;99.90
60868;DHT22;46702;48.370;10.794;2022-10-31T01:34:35;7.50;99.90
60868;DHT22;46702;48.370;10.794;2022-10-31T01:37:00;7.60;99.90
60868;DHT22;46702;48.370;10.794;2022-10-31T01:39:26;7.60;99.90
60868;DHT22;46702;48.370;10.794;2022-10-31T01:41:53;7.60;99.90
60868;DHT22;46702;48.370;10.794;2022-10-31T01:47:00;7.60;99.90
60868;DHT22;46702;48.370;10.794;2022-10-31T01:52:19;7.80;99.90
60868;DHT22;46702;48.370;10.794;2022-10-31T01:54:55;7.80;99.90
60868;DHT22;46702;48.370;10.794;2022-10-31T01:57:22;7.90;99.90
60868;DHT22;46702;48.370;10.794;2022-10-31T01:59:51;7.90;99.90
60868;DHT22;46702;48.370;10.794;2022-10-31T02:02:18;7.90;99.90
60868;DHT22;46702;48.370;10.794;2022-10-31T02:04:45;7.90;99.90
60868;DHT22;46702;48.370;10.794;2022-10-31T02:07:18;7.90;99.90
60868;DHT22;46702;48.370;10.794;2022-10-31T02:09:46;8.00;99.90
60868;DHT22;46702;48.370;10.794;2022-10-31T02:12:13;7.90;99.90
60868;DHT22;46702;48.370;10.794;2022-10-31T02:14:40;7.80;99.90
60868;DHT22;46702;48.370;10.794;2022-10-31T02:17:06;7.70;99.90
60868;DHT22;46702;48.370;10.794;2022-10-31T02:22:07;7.70;99.90
60868;DHT22;46702;48.370;10.794;2022-10-31T02:35:33;7.30;99.90
60868;DHT22;46702;48.370;10.794;2022-10-31T02:38:13;7.30;99.90
60868;DHT22;46702;48.370;10.794;2022-10-31T02:41:17;7.30;99.90
60868;DHT22;46702;48.370;10.794;2022-10-31T02:44:05;7.30;99.90
60868;DHT22;46702;48.370;10.794;2022-10-31T02:46:34;7.20;99.90
60868;DHT22;46702;48.370;10.794;2022-10-31T02:49:07;7.10;99.90
60868;DHT22;46702;48.370;10.794;2022-10-31T02:51:36;7.00;99.90
60868;DHT22;46702;48.370;10.794;2022-10-31T02:57:27;7.00;99.90
60868;DHT22;46702;48.370;10.794;2022-10-31T03:00:06;6.90;99.90
60868;DHT22;46702;48.370;10.794;2022-10-31T03:02:36;7.00;99.90
60868;DHT22;46702;48.370;10.794;2022-10-31T03:08:12;7.10;99.90
60868;DHT22;46702;48.370;10.794;2022-10-31T03:15:50;7.20;99.90
60868;DHT22;46702;48.370;10.794;2022-10-31T03:18:27;7.30;99.90
60868;DHT22;46702;48.370;10.794;2022-10-31T03:21:12;7.40;99.90
60868;DHT22;46702;48.370;10.794;2022-10-31T03:23:39;7.40;99.90
60868;DHT22;46702;48.370;10.794;2022-10-31T03:26:07;7.40;99.90
60868;DHT22;46702;48.370;10.794;2022-10-31T03:28:45;7.50;99.90
60868;DHT22;46702;48.370;10.794;2022-10-31T03:31:14;7.40;99.90
60868;DHT22;46702;48.370;10.794;2022-10-31T03:33:42;7.30;99.90
60868;DHT22;46702;48.370;10.794;2022-10-31T03:36:10;7.20;99.90
60868;DHT22;46702;48.370;10.794;2022-10-31T03:38:38;7.20;99.90
60868;DHT22;46702;48.370;10.794;2022-10-31T03:41:05;7.30;99.90
60868;DHT22;46702;48.370;10.794;2022-10-31T03:43:38;7.30;99.90
60868;DHT22;46702;48.370;10.794;2022-10-31T03:46:05;7.30;99.90
60868;DHT22;46702;48.370;10.794;2022-10-31T03:48:32;7.30;99.90
60868;DHT22;46702;48.370;10.794;2022-10-31T03:51:24;7.40;99.90
60868;DHT22;46702;48.370;10.794;2022-10-31T03:53:57;7.20;99.90
60868;DHT22;46702;48.370;10.794;2022-10-31T03:56:37;7.00;99.90
60868;DHT22;46702;48.370;10.794;2022-10-31T03:59:13;7.00;99.90
60868;DHT22;46702;48.370;10.794;2022-10-31T04:01:44;7.00;99.90
60868;DHT22;46702;48.370;10.794;2022-10-31T04:04:12;7.00;99.90
60868;DHT22;46702;48.370;10.794;2022-10-31T04:06:40;6.90;99.90
60868;DHT22;46702;48.370;10.794;2022-10-31T04:09:09;6.90;99.90
60868;DHT22;46702;48.370;10.794;2022-10-31T04:11:38;6.80;99.90
60868;DHT22;46702;48.370;10.794;2022-10-31T04:14:07;6.70;99.90
60868;DHT22;46702;48.370;10.794;2022-10-31T04:16:33;6.70;99.90
60868;DHT22;46702;48.370;10.794;2022-10-31T04:18:59;6.60;99.90
60868;DHT22;46702;48.370;10.794;2022-10-31T04:21:29;6.80;99.90
60868;DHT22;46702;48.370;10.794;2022-10-31T04:23:56;6.80;99.90
60868;DHT22;46702;48.370;10.794;2022-10-31T04:26:22;6.80;99.90
60868;DHT22;46702;48.370;10.794;2022-10-31T04:28:47;6.90;99.90
60868;DHT22;46702;48.370;10.794;2022-10-31T04:31:13;7.00;99.90
60868;DHT22;46702;48.370;10.794;2022-10-31T04:33:39;7.00;99.90
60868;DHT22;46702;48.370;10.794;2022-10-31T04:36:05;6.90;99.90
60868;DHT22;46702;48.370;10.794;2022-10-31T04:38:30;6.90;99.90
60868;DHT22;46702;48.370;10.794;2022-10-31T04:40:56;6.90;99.90
60868;DHT22;46702;48.370;10.794;2022-10-31T04:43:22;6.90;99.90
60868;DHT22;46702;48.370;10.794;2022-10-31T04:45:47;7.00;99.90
60868;DHT22;46702;48.370;10.794;2022-10-31T04:48:13;7.00;99.90
60868;DHT22;46702;48.370;10.794;2022-10-31T04:50:39;7.00;99.90
60868;DHT22;46702;48.370;10.794;2022-10-31T04:53:05;7.10;99.90
60868;DHT22;46702;48.370;10.794;2022-10-31T04:55:30;7.10;99.90
60868;DHT22;46702;48.370;10.794;2022-10-31T04:57:57;7.10;99.90
60868;DHT22;46702;48.370;10.794;2022-10-31T05:00:23;7.00;99.90
60868;DHT22;46702;48.370;10.794;2022-10-31T05:02:56;6.90;99.90
60868;DHT22;46702;48.370;10.794;2022-10-31T05:05:24;6.80;99.90
60868;DHT22;46702;48.370;10.794;2022-10-31T05:07:51;6.70;99.90
60868;DHT22;46702;48.370;10.794;2022-10-31T05:10:19;6.80;99.90
60868;DHT22;46702;48.370;10.794;2022-10-31T05:12:50;6.70;99.90
60868;DHT22;46702;48.370;10.794;2022-10-31T05:15:16;6.80;99.90
60868;DHT22;46702;48.370;10.794;2022-10-31T05:17:42;6.80;99.90
60868;DHT22;46702;48.370;10.794;2022-10-31T05:20:09;6.80;99.90
60868;DHT22;46702;48.370;10.794;2022-10-31T05:22:34;6.80;99.90
60868;DHT22;46702;48.370;10.794;2022-10-31T05:25:00;6.90;99.90
60868;DHT22;46702;48.370;10.794;2022-10-31T05:27:25;7.00;99.90
60868;DHT22;46702;48.370;10.794;2022-10-31T05:29:51;7.00;99.90
60868;DHT22;46702;48.370;10.794;2022-10-31T05:32:16;7.00;99.90
60868;DHT22;46702;48.370;10.794;2022-10-31T05:34:43;7.00;99.90
60868;DHT22;46702;48.370;10.794;2022-10-31T05:37:08;7.00;99.90
60868;DHT22;46702;48.370;10.794;2022-10-31T05:39:34;7.10;99.90
60868;DHT22;46702;48.370;10.794;2022-10-31T05:42:00;7.10;99.90
60868;DHT22;46702;48.370;10.794;2022-10-31T05:44:25;7.00;99.90
60868;DHT22;46702;48.370;10.794;2022-10-31T05:46:51;7.00;99.90
60868;DHT22;46702;48.370;10.794;2022-10-31T05:49:16;7.00;99.90
60868;DHT22;46702;48.370;10.794;2022-10-31T05:51:42;7.00;99.90
60868;DHT22;46702;48.370;10.794;2022-10-31T05:54:08;7.00;99.90
60868;DHT22;46702;48.370;10.794;2022-10-31T05:56:34;7.00;99.90
60868;DHT22;46702;48.370;10.794;2022-10-31T05:58:59;7.00;99.90
60868;DHT22;46702;48.370;10.794;2022-10-31T06:01:25;7.00;99.90
60868;DHT22;46702;48.370;10.794;2022-10-31T06:03:50;7.00;99.90
60868;DHT22;46702;48.370;10.794;2022-10-31T06:06:16;7.00;99.90
60868;DHT22;46702;48.370;10.794;2022-10-31T06:08:42;7.00;99.90
60868;DHT22;46702;48.370;10.794;2022-10-31T06:11:07;7.00;99.90
60868;DHT22;46702;48.370;10.794;2022-10-31T06:13:33;7.00;99.90
60868;DHT22;46702;48.370;10.794;2022-10-31T06:15:59;7.10;99.90
60868;DHT22;46702;48.370;10.794;2022-10-31T06:18:24;7.00;99.90
60868;DHT22;46702;48.370;10.794;2022-10-31T06:20:50;7.00;99.90
60868;DHT22;46702;48.370;10.794;2022-10-31T06:23:16;6.90;99.90
60868;DHT22;46702;48.370;10.794;2022-10-31T06:25:41;7.00;99.90
60868;DHT22;46702;48.370;10.794;2022-10-31T06:28:07;6.90;99.90
60868;DHT22;46702;48.370;10.794;2022-10-31T06:30:32;6.90;99.90
60868;DHT22;46702;48.370;10.794;2022-10-31T06:33:05;7.00;99.90
60868;DHT22;46702;48.370;10.794;2022-10-31T06:35:31;7.00;99.90
60868;DHT22;46702;48.370;10.794;2022-10-31T06:37:57;7.00;99.90
60868;DHT22;46702;48.370;10.794;2022-10-31T06:40:22;7.00;99.90
60868;DHT22;46702;48.370;10.794;2022-10-31T06:42:59;7.00;99.90
60868;DHT22;46702;48.370;10.794;2022-10-31T06:45:25;7.00;99.90
60868;DHT22;46702;48.370;10.794;2022-10-31T06:47:54;6.80;99.90
60868;DHT22;46702;48.370;10.794;2022-10-31T06:50:21;6.80;99.90
60868;DHT22;46702;48.370;10.794;2022-10-31T06:52:58;6.90;99.90
60868;DHT22;46702;48.370;10.794;2022-10-31T06:55:25;6.80;99.90
60868;DHT22;46702;48.370;10.794;2022-10-31T06:58:01;6.80;99.90
60868;DHT22;46702;48.370;10.794;2022-10-31T07:00:29;6.80;99.90
60868;DHT22;46702;48.370;10.794;2022-10-31T07:03:02;6.90;99.90
60868;DHT22;46702;48.370;10.794;2022-10-31T07:05:29;6.90;99.90
60868;DHT22;46702;48.370;10.794;2022-10-31T07:07:59;7.00;99.90
60868;DHT22;46702;48.370;10.794;2022-10-31T07:10:26;7.00;99.90
60868;DHT22;46702;48.370;10.794;2022-10-31T07:12:56;7.00;99.90
60868;DHT22;46702;48.370;10.794;2022-10-31T07:15:23;7.10;99.90
60868;DHT22;46702;48.370;10.794;2022-10-31T07:17:49;7.20;99.90
60868;DHT22;46702;48.370;10.794;2022-10-31T07:20:14;7.20;99.90
60868;DHT22;46702;48.370;10.794;2022-10-31T07:22:40;7.30;99.90
60868;DHT22;46702;48.370;10.794;2022-10-31T07:25:06;7.30;99.90
60868;DHT22;46702;48.370;10.794;2022-10-31T07:27:36;7.40;99.90
60868;DHT22;46702;48.370;10.794;2022-10-31T07:30:03;7.40;99.90
60868;DHT22;46702;48.370;10.794;2022-10-31T07:32:37;7.50;99.90
60868;DHT22;46702;48.370;10.794;2022-10-31T07:35:03;7.60;99.90
60868;DHT22;46702;48.370;10.794;2022-10-31T07:37:29;7.60;99.90
60868;DHT22;46702;48.370;10.794;2022-10-31T07:39:54;7.60;99.90
60868;DHT22;46702;48.370;10.794;2022-10-31T07:42:20;7.60;99.90
60868;DHT22;46702;48.370;10.794;2022-10-31T07:44:46;7.60;99.90
60868;DHT22;46702;48.370;10.794;2022-10-31T07:47:11;7.70;99.90
60868;DHT22;46702;48.370;10.794;2022-10-31T07:49:37;7.70;99.90
60868;DHT22;46702;48.370;10.794;2022-10-31T07:52:02;7.80;99.90
60868;DHT22;46702;48.370;10.794;2022-10-31T07:54:28;7.90;99.90
60868;DHT22;46702;48.370;10.794;2022-10-31T07:56:54;8.00;99.90
60868;DHT22;46702;48.370;10.794;2022-10-31T07:59:19;8.00;99.90
60868;DHT22;46702;48.370;10.794;2022-10-31T08:01:45;8.10;99.90
60868;DHT22;46702;48.370;10.794;2022-10-31T08:04:10;8.20;99.90
60868;DHT22;46702;48.370;10.794;2022-10-31T08:06:36;8.30;99.90
60868;DHT22;46702;48.370;10.794;2022-10-31T08:09:02;8.40;99.90
60868;DHT22;46702;48.370;10.794;2022-10-31T08:11:27;8.50;99.90
60868;DHT22;46702;48.370;10.794;2022-10-31T08:13:53;8.60;99.90
60868;DHT22;46702;48.370;10.794;2022-10-31T08:16:18;8.70;99.90
60868;DHT22;46702;48.370;10.794;2022-10-31T08:18:44;8.90;99.90
60868;DHT22;46702;48.370;10.794;2022-10-31T08:21:10;9.00;99.90
60868;DHT22;46702;48.370;10.794;2022-10-31T08:23:35;9.20;99.90
60868;DHT22;46702;48.370;10.794;2022-10-31T08:26:01;9.30;99.90
60868;DHT22;46702;48.370;10.794;2022-10-31T08:28:27;9.50;99.90
60868;DHT22;46702;48.370;10.794;2022-10-31T08:30:52;9.60;99.90
60868;DHT22;46702;48.370;10.794;2022-10-31T08:33:21;9.80;99.90
60868;DHT22;46702;48.370;10.794;2022-10-31T08:35:46;9.90;99.90
60868;DHT22;46702;48.370;10.794;2022-10-31T08:38:13;10.00;99.90
60868;DHT22;46702;48.370;10.794;2022-10-31T08:40:39;10.10;99.90
60868;DHT22;46702;48.370;10.794;2022-10-31T08:43:10;10.30;99.90
60868;DHT22;46702;48.370;10.794;2022-10-31T08:45:36;10.40;99.90
60868;DHT22;46702;48.370;10.794;2022-10-31T08:48:05;10.50;99.90
60868;DHT22;46702;48.370;10.794;2022-10-31T08:50:33;10.60;99.90
60868;DHT22;46702;48.370;10.794;2022-10-31T08:53:04;10.80;99.90
60868;DHT22;46702;48.370;10.794;2022-10-31T08:55:30;10.90;99.90
60868;DHT22;46702;48.370;10.794;2022-10-31T08:57:56;11.00;99.90
60868;DHT22;46702;48.370;10.794;2022-10-31T09:00:22;11.20;99.90
60868;DHT22;46702;48.370;10.794;2022-10-31T09:03:13;11.30;99.90
60868;DHT22;46702;48.370;10.794;2022-10-31T09:05:39;11.50;99.90
60868;DHT22;46702;48.370;10.794;2022-10-31T09:08:06;11.60;99.90
60868;DHT22;46702;48.370;10.794;2022-10-31T09:10:34;11.80;99.90
60868;DHT22;46702;48.370;10.794;2022-10-31T09:13:02;12.00;99.90
60868;DHT22;46702;48.370;10.794;2022-10-31T09:15:33;12.10;99.90
60868;DHT22;46702;48.370;10.794;2022-10-31T09:17:59;12.20;99.90
60868;DHT22;46702;48.370;10.794;2022-10-31T09:20:26;12.40;99.90
60868;DHT22;46702;48.370;10.794;2022-10-31T09:23:08;12.60;99.90
60868;DHT22;46702;48.370;10.794;2022-10-31T09:25:34;12.70;99.90
60868;DHT22;46702;48.370;10.794;2022-10-31T09:28:03;12.80;99.90
60868;DHT22;46702;48.370;10.794;2022-10-31T09:30:30;13.00;99.90
60868;DHT22;46702;48.370;10.794;2022-10-31T09:33:01;13.10;99.90
60868;DHT22;46702;48.370;10.794;2022-10-31T09:35:27;13.20;99.90
60868;DHT22;46702;48.370;10.794;2022-10-31T09:37:57;13.30;99.90
60868;DHT22;46702;48.370;10.794;2022-10-31T09:40:31;13.40;99.90
60868;DHT22;46702;48.370;10.794;2022-10-31T09:51:20;13.80;99.90
60868;DHT22;46702;48.370;10.794;2022-10-31T09:54:02;13.90;99.90
60868;DHT22;46702;48.370;10.794;2022-10-31T09:56:31;14.10;99.90
60868;DHT22;46702;48.370;10.794;2022-10-31T09:58:59;14.20;99.90
60868;DHT22;46702;48.370;10.794;2022-10-31T10:02:15;14.30;99.90
60868;DHT22;46702;48.370;10.794;2022-10-31T10:04:34;14.30;99.90
60868;DHT22;46702;48.370;10.794;2022-10-31T10:07:21;14.30;99.90
60868;DHT22;46702;48.370;10.794;2022-10-31T10:09:48;14.30;99.90
60868;DHT22;46702;48.370;10.794;2022-10-31T10:12:48;14.40;99.90
60868;DHT22;46702;48.370;10.794;2022-10-31T10:23:42;14.50;99.90
60868;DHT22;46702;48.370;10.794;2022-10-31T10:26:17;14.60;99.90
60868;DHT22;46702;48.370;10.794;2022-10-31T10:28:54;14.60;99.90
60868;DHT22;46702;48.370;10.794;2022-10-31T10:31:33;14.60;99.90
60868;DHT22;46702;48.370;10.794;2022-10-31T10:36:39;14.70;99.90
60868;DHT22;46702;48.370;10.794;2022-10-31T10:39:26;14.80;99.90
60868;DHT22;46702;48.370;10.794;2022-10-31T10:41:52;14.80;99.90
60868;DHT22;46702;48.370;10.794;2022-10-31T10:44:42;14.90;99.90
60868;DHT22;46702;48.370;10.794;2022-10-31T10:47:37;15.00;99.90
60868;DHT22;46702;48.370;10.794;2022-10-31T10:50:22;15.10;99.90
60868;DHT22;46702;48.370;10.794;2022-10-31T10:52:57;15.10;99.90
60868;DHT22;46702;48.370;10.794;2022-10-31T10:58:10;15.30;99.90
60868;DHT22;46702;48.370;10.794;2022-10-31T11:00:42;15.20;99.90
60868;DHT22;46702;48.370;10.794;2022-10-31T11:03:09;15.30;99.90
60868;DHT22;46702;48.370;10.794;2022-10-31T11:05:36;15.40;99.90
60868;DHT22;46702;48.370;10.794;2022-10-31T11:08:03;15.30;99.90
60868;DHT22;46702;48.370;10.794;2022-10-31T11:10:29;15.30;99.90
60868;DHT22;46702;48.370;10.794;2022-10-31T11:15:27;15.30;99.90
60868;DHT22;46702;48.370;10.794;2022-10-31T11:17:55;15.30;99.90
60868;DHT22;46702;48.370;10.794;2022-10-31T11:20:33;15.30;99.90
60868;DHT22;46702;48.370;10.794;2022-10-31T11:23:21;15.30;99.90
60868;DHT22;46702;48.370;10.794;2022-10-31T11:26:04;15.30;99.90
60868;DHT22;46702;48.370;10.794;2022-10-31T11:28:32;15.30;99.90
60868;DHT22;46702;48.370;10.794;2022-10-31T11:31:08;15.30;99.90
60868;DHT22;46702;48.370;10.794;2022-10-31T11:33:35;15.20;99.90
60868;DHT22;46702;48.370;10.794;2022-10-31T11:36:04;15.30;99.90
60868;DHT22;46702;48.370;10.794;2022-10-31T11:38:43;15.30;99.90
60868;DHT22;46702;48.370;10.794;2022-10-31T11:41:15;15.30;99.90
60868;DHT22;46702;48.370;10.794;2022-10-31T11:43:50;15.30;99.90
60868;DHT22;46702;48.370;10.794;2022-10-31T11:46:33;15.40;99.90
60868;DHT22;46702;48.370;10.794;2022-10-31T11:48:59;15.40;99.90
60868;DHT22;46702;48.370;10.794;2022-10-31T11:51:31;15.50;99.90
60868;DHT22;46702;48.370;10.794;2022-10-31T11:53:58;15.50;99.90
60868;DHT22;46702;48.370;10.794;2022-10-31T11:56:24;15.60;99.90
60868;DHT22;46702;48.370;10.794;2022-10-31T11:59:01;15.70;99.90
60868;DHT22;46702;48.370;10.794;2022-10-31T12:01:29;15.70;99.90
60868;DHT22;46702;48.370;10.794;2022-10-31T12:04:10;15.90;99.90
60868;DHT22;46702;48.370;10.794;2022-10-31T12:06:41;16.00;99.90
60868;DHT22;46702;48.370;10.794;2022-10-31T12:15:02;16.10;99.90
60868;DHT22;46702;48.370;10.794;2022-10-31T12:20:52;16.20;99.90
60868;DHT22;46702;48.370;10.794;2022-10-31T12:25:59;16.20;99.90
60868;DHT22;46702;48.370;10.794;2022-10-31T12:29:02;16.10;99.90
60868;DHT22;46702;48.370;10.794;2022-10-31T12:31:53;15.90;99.90
60868;DHT22;46702;48.370;10.794;2022-10-31T12:48:06;15.60;99.90
60868;DHT22;46702;48.370;10.794;2022-10-31T12:56:53;15.70;99.90
60868;DHT22;46702;48.370;10.794;2022-10-31T13:05:27;15.50;99.90
60868;DHT22;46702;48.370;10.794;2022-10-31T13:10:49;15.40;99.90
60868;DHT22;46702;48.370;10.794;2022-10-31T13:13:54;15.40;99.90
60868;DHT22;46702;48.370;10.794;2022-10-31T13:16:25;15.40;99.90
60868;DHT22;46702;48.370;10.794;2022-10-31T13:24:33;15.30;99.90
60868;DHT22;46702;48.370;10.794;2022-10-31T13:27:01;15.40;99.90
60868;DHT22;46702;48.370;10.794;2022-10-31T13:29:29;15.40;99.90
60868;DHT22;46702;48.370;10.794;2022-10-31T13:31:57;15.40;99.90
60868;DHT22;46702;48.370;10.794;2022-10-31T13:34:30;15.50;99.90
60868;DHT22;46702;48.370;10.794;2022-10-31T13:39:52;15.60;99.90
60868;DHT22;46702;48.370;10.794;2022-10-31T13:45:13;15.70;99.90
60868;DHT22;46702;48.370;10.794;2022-10-31T13:47:40;15.70;99.90
60868;DHT22;46702;48.370;10.794;2022-10-31T13:50:21;15.70;99.90
60868;DHT22;46702;48.370;10.794;2022-10-31T13:52:47;15.80;99.90
60868;DHT22;46702;48.370;10.794;2022-10-31T13:55:37;15.70;99.90
60868;DHT22;46702;48.370;10.794;2022-10-31T14:01:27;15.60;99.90
60868;DHT22;46702;48.370;10.794;2022-10-31T14:07:34;15.40;99.90
60868;DHT22;46702;48.370;10.794;2022-10-31T14:13:35;15.30;99.90
60868;DHT22;46702;48.370;10.794;2022-10-31T14:15:38;15.20;99.90
60868;DHT22;46702;48.370;10.794;2022-10-31T14:18:17;15.20;99.90
60868;DHT22;46702;48.370;10.794;2022-10-31T14:20:48;15.10;99.90
60868;DHT22;46702;48.370;10.794;2022-10-31T14:31:51;15.00;99.90
60868;DHT22;46702;48.370;10.794;2022-10-31T14:34:33;14.80;99.90
60868;DHT22;46702;48.370;10.794;2022-10-31T14:47:56;14.90;99.90
60868;DHT22;46702;48.370;10.794;2022-10-31T14:50:49;14.90;99.90
60868;DHT22;46702;48.370;10.794;2022-10-31T14:53:26;14.80;99.90
60868;DHT22;46702;48.370;10.794;2022-10-31T14:55:54;14.80;99.90
60868;DHT22;46702;48.370;10.794;2022-10-31T14:58:33;14.70;99.90
60868;DHT22;46702;48.370;10.794;2022-10-31T15:01:03;14.70;99.90
60868;DHT22;46702;48.370;10.794;2022-10-31T15:03:42;14.70;99.90
60868;DHT22;46702;48.370;10.794;2022-10-31T15:06:18;14.60;99.90
60868;DHT22;46702;48.370;10.794;2022-10-31T15:08:53;14.60;99.90
60868;DHT22;46702;48.370;10.794;2022-10-31T15:11:35;14.50;99.90
60868;DHT22;46702;48.370;10.794;2022-10-31T15:14:16;14.40;99.90
60868;DHT22;46702;48.370;10.794;2022-10-31T15:16:43;14.50;99.90
60868;DHT22;46702;48.370;10.794;2022-10-31T15:19:16;14.50;99.90
60868;DHT22;46702;48.370;10.794;2022-10-31T15:21:47;14.40;99.90
60868;DHT22;46702;48.370;10.794;2022-10-31T15:24:14;14.40;99.90
60868;DHT22;46702;48.370;10.794;2022-10-31T15:26:45;14.40;99.90
60868;DHT22;46702;48.370;10.794;2022-10-31T15:29:19;14.30;99.90
60868;DHT22;46702;48.370;10.794;2022-10-31T15:32:12;14.30;99.90
60868;DHT22;46702;48.370;10.794;2022-10-31T15:34:47;14.20;99.90
60868;DHT22;46702;48.370;10.794;2022-10-31T15:37:17;14.20;99.90
60868;DHT22;46702;48.370;10.794;2022-10-31T15:39:48;14.20;99.90
60868;DHT22;46702;48.370;10.794;2022-10-31T15:45:37;14.20;99.90
60868;DHT22;46702;48.370;10.794;2022-10-31T15:48:23;14.20;99.90
60868;DHT22;46702;48.370;10.794;2022-10-31T15:56:38;14.10;99.90
60868;DHT22;46702;48.370;10.794;2022-10-31T15:59:04;14.10;99.90
60868;DHT22;46702;48.370;10.794;2022-10-31T16:01:38;14.00;99.90
60868;DHT22;46702;48.370;10.794;2022-10-31T16:04:25;14.00;99.90
60868;DHT22;46702;48.370;10.794;2022-10-31T16:07:15;13.90;99.90
60868;DHT22;46702;48.370;10.794;2022-10-31T16:09:53;13.60;99.90
60868;DHT22;46702;48.370;10.794;2022-10-31T16:12:20;13.60;99.90
60868;DHT22;46702;48.370;10.794;2022-10-31T16:14:46;13.80;99.90
60868;DHT22;46702;48.370;10.794;2022-10-31T16:17:18;13.80;99.90
60868;DHT22;46702;48.370;10.794;2022-10-31T16:22:34;13.90;99.90
60868;DHT22;46702;48.370;10.794;2022-10-31T16:25:14;13.90;99.90
60868;DHT22;46702;48.370;10.794;2022-10-31T16:27:51;13.90;99.90
60868;DHT22;46702;48.370;10.794;2022-10-31T16:30:44;13.90;99.90
60868;DHT22;46702;48.370;10.794;2022-10-31T16:33:31;13.90;99.90
60868;DHT22;46702;48.370;10.794;2022-10-31T16:39:40;13.80;99.90
60868;DHT22;46702;48.370;10.794;2022-10-31T16:42:11;13.90;99.90
60868;DHT22;46702;48.370;10.794;2022-10-31T16:45:22;13.90;99.90
60868;DHT22;46702;48.370;10.794;2022-10-31T16:47:37;13.80;99.90
60868;DHT22;46702;48.370;10.794;2022-10-31T16:50:10;13.70;99.90
60868;DHT22;46702;48.370;10.794;2022-10-31T16:52:37;13.70;99.90
60868;DHT22;46702;48.370;10.794;2022-10-31T16:55:03;13.70;99.90
60868;DHT22;46702;48.370;10.794;2022-10-31T16:57:33;13.70;99.90
60868;DHT22;46702;48.370;10.794;2022-10-31T16:59:58;13.70;99.90
60868;DHT22;46702;48.370;10.794;2022-10-31T17:02:24;13.70;99.90
60868;DHT22;46702;48.370;10.794;2022-10-31T17:04:49;13.70;99.90
60868;DHT22;46702;48.370;10.794;2022-10-31T17:07:15;13.60;99.90
60868;DHT22;46702;48.370;10.794;2022-10-31T17:09:41;13.70;99.90
60868;DHT22;46702;48.370;10.794;2022-10-31T17:12:16;13.60;99.90
60868;DHT22;46702;48.370;10.794;2022-10-31T17:14:46;13.40;99.90
60868;DHT22;46702;48.370;10.794;2022-10-31T17:17:17;13.10;99.90
60868;DHT22;46702;48.370;10.794;2022-10-31T17:19:43;13.10;99.90
60868;DHT22;46702;48.370;10.794;2022-10-31T17:22:12;13.00;99.90
60868;DHT22;46702;48.370;10.794;2022-10-31T17:24:41;12.60;99.90
60868;DHT22;46702;48.370;10.794;2022-10-31T17:27:10;12.60;99.90
60868;DHT22;46702;48.370;10.794;2022-10-31T17:29:45;12.70;99.90
60868;DHT22;46702;48.370;10.794;2022-10-31T17:32:10;12.70;99.90
60868;DHT22;46702;48.370;10.794;2022-10-31T17:34:38;12.70;99.90
60868;DHT22;46702;48.370;10.794;2022-10-31T17:37:30;12.70;99.90
60868;DHT22;46702;48.370;10.794;2022-10-31T17:39:55;12.60;99.90
60868;DHT22;46702;48.370;10.794;2022-10-31T17:42:27;12.50;99.90
60868;DHT22;46702;48.370;10.794;2022-10-31T17:45:48;12.40;99.90
60868;DHT22;46702;48.370;10.794;2022-10-31T17:48:27;12.10;99.90
60868;DHT22;46702;48.370;10.794;2022-10-31T17:50:59;12.10;99.90
60868;DHT22;46702;48.370;10.794;2022-10-31T17:53:30;12.10;99.90
60868;DHT22;46702;48.370;10.794;2022-10-31T17:56:01;12.00;99.90
60868;DHT22;46702;48.370;10.794;2022-10-31T17:58:27;11.80;99.90
60868;DHT22;46702;48.370;10.794;2022-10-31T18:00:55;11.80;99.90
60868;DHT22;46702;48.370;10.794;2022-10-31T18:03:25;11.70;99.90
60868;DHT22;46702;48.370;10.794;2022-10-31T18:06:10;11.70;99.90
60868;DHT22;46702;48.370;10.794;2022-10-31T18:08:41;11.60;99.90
60868;DHT22;46702;48.370;10.794;2022-10-31T18:11:13;11.60;99.90
60868;DHT22;46702;48.370;10.794;2022-10-31T18:13:41;11.50;99.90
60868;DHT22;46702;48.370;10.794;2022-10-31T18:16:15;11.40;99.90